createdAt,value
2022-10-22T00:00:00.380Z,984.343
2022-10-22T00:01:00.511Z,984.4004
2022-10-22T00:02:00.659Z,984.321
2022-10-22T00:03:00.888Z,984.3075
2022-10-22T00:04:00.955Z,984.4444
2022-10-22T00:05:01.125Z,984.272
2022-10-22T00:06:01.254Z,984.294
2022-10-22T00:07:00.403Z,984.2145
2022-10-22T00:08:00.540Z,984.3869
2022-10-22T00:09:00.746Z,984.3649
2022-10-22T00:10:00.856Z,984.3649
2022-10-22T00:11:00.991Z,984.25
2022-10-22T00:12:01.132Z,984.1993
2022-10-22T00:13:00.284Z,984.4292
2022-10-22T00:14:00.431Z,984.343
2022-10-22T00:15:00.594Z,984.343
2022-10-22T00:16:00.744Z,984.5154
2022-10-22T00:17:00.859Z,984.4444
2022-10-22T00:18:01.002Z,984.3649
2022-10-22T00:19:01.141Z,984.5948
2022-10-22T00:20:00.283Z,984.5158
2022-10-22T00:21:00.461Z,984.5373
2022-10-22T00:22:00.595Z,984.5948
2022-10-22T00:23:00.732Z,984.4951
2022-10-22T00:24:00.879Z,984.4444
2022-10-22T00:25:01.035Z,984.5019
2022-10-22T00:26:01.196Z,984.5086
2022-10-22T00:27:00.326Z,984.5154
2022-10-22T00:28:00.490Z,984.4359
2022-10-22T00:29:00.631Z,984.5154
2022-10-22T00:30:00.781Z,984.5935
2022-10-22T00:31:00.939Z,984.4211
2022-10-22T00:32:01.074Z,984.6222
2022-10-22T00:33:01.219Z,984.4781
2022-10-22T00:34:00.368Z,984.5495
2022-10-22T00:35:00.503Z,984.4633
2022-10-22T00:36:00.673Z,984.4701
2022-10-22T00:37:00.820Z,984.3906
2022-10-22T00:38:00.932Z,984.3758
2022-10-22T00:39:01.084Z,984.541
2022-10-22T00:40:01.230Z,984.6547
2022-10-22T00:42:00.556Z,984.5685
2022-10-22T00:43:00.672Z,984.5312
2022-10-22T00:44:00.833Z,984.5312
2022-10-22T00:45:00.984Z,984.6377
2022-10-22T00:46:01.128Z,984.4504
2022-10-22T00:47:00.284Z,984.5506
2022-10-22T00:48:00.429Z,984.5641
2022-10-22T00:49:00.574Z,984.5929
2022-10-22T00:50:00.753Z,984.5929
2022-10-22T00:51:00.863Z,984.6706
2022-10-22T00:52:01.013Z,984.4829
2022-10-22T00:53:01.179Z,984.6042
2022-10-22T00:54:00.293Z,984.8027
2022-10-22T00:55:00.441Z,984.8382
2022-10-22T00:56:00.594Z,984.6011
2022-10-22T00:57:00.741Z,984.5863
2022-10-22T00:58:00.909Z,984.6506
2022-10-22T00:59:01.092Z,984.5913
2022-10-22T01:00:01.179Z,984.6328
2022-10-22T01:01:00.365Z,984.7191
2022-10-22T01:02:00.462Z,984.6395
2022-10-22T01:03:00.629Z,984.7614
2022-10-22T01:04:00.750Z,984.56
2022-10-22T01:05:00.910Z,984.653
2022-10-22T01:06:01.055Z,984.582
2022-10-22T01:07:01.194Z,984.5532
2022-10-22T01:08:00.476Z,984.6328
2022-10-22T01:09:00.564Z,984.604
2022-10-22T01:10:00.642Z,984.4889
2022-10-22T01:11:00.820Z,984.5177
2022-10-22T01:12:00.949Z,984.4889
2022-10-22T01:13:01.105Z,984.4547
2022-10-22T01:14:00.251Z,984.5464
2022-10-22T01:15:00.395Z,984.4889
2022-10-22T01:16:00.558Z,984.4601
2022-10-22T01:17:00.679Z,984.5164
2022-10-22T01:18:00.839Z,984.4418
2022-10-22T01:19:01.006Z,984.5484
2022-10-22T01:20:01.136Z,984.4468
2022-10-22T01:21:00.318Z,984.589
2022-10-22T01:22:00.444Z,984.5449
2022-10-22T01:23:00.594Z,984.4077
2022-10-22T01:24:00.728Z,984.5139
2022-10-22T01:25:00.884Z,984.6561
2022-10-22T01:26:01.046Z,984.5684
2022-10-22T01:27:01.176Z,984.5379
2022-10-22T01:28:00.331Z,984.5717
2022-10-22T01:29:00.466Z,984.5479
2022-10-22T01:30:00.624Z,984.575
2022-10-22T01:31:00.799Z,984.4805
2022-10-22T01:32:00.916Z,984.3927
2022-10-22T01:33:01.064Z,984.4062
2022-10-22T01:34:01.221Z,984.3909
2022-10-22T01:35:00.365Z,984.5901
2022-10-22T01:36:00.534Z,984.4748
2022-10-22T01:37:00.668Z,984.4951
2022-10-22T01:38:00.827Z,984.3793
2022-10-22T01:39:00.975Z,984.4221
2022-10-22T01:40:01.123Z,984.4005
2022-10-22T01:41:00.304Z,984.5361
2022-10-22T01:42:00.435Z,984.4785
2022-10-22T01:43:00.571Z,984.5649
2022-10-22T01:44:00.724Z,984.4208
2022-10-22T01:45:00.858Z,984.492
2022-10-22T01:46:01.023Z,984.232
2022-10-22T01:47:01.152Z,984.3749
2022-10-22T01:48:00.301Z,984.3024
2022-10-22T01:49:00.440Z,984.3889
2022-10-22T01:50:00.599Z,984.3312
2022-10-22T01:51:00.772Z,984.2226
2022-10-22T01:52:00.897Z,984.3087
2022-10-22T01:53:01.029Z,984.4024
2022-10-22T01:54:01.185Z,984.2222
2022-10-22T01:55:00.338Z,984.2294
2022-10-22T01:56:00.511Z,984.4448
2022-10-22T01:57:00.636Z,984.287
2022-10-22T01:58:00.773Z,984.3006
2022-10-22T01:59:00.936Z,984.3073
2022-10-22T02:00:01.084Z,984.2717
2022-10-22T02:01:01.364Z,984.3141
2022-10-22T02:02:00.376Z,984.4006
2022-10-22T02:03:00.537Z,984.4583
2022-10-22T02:04:00.684Z,984.3006
2022-10-22T02:05:00.820Z,984.3294
2022-10-22T02:06:01.010Z,984.3294
2022-10-22T02:07:01.116Z,984.3159
2022-10-22T02:08:00.261Z,984.3663
2022-10-22T02:09:00.572Z,984.3736
2022-10-22T02:10:00.559Z,984.3871
2022-10-22T02:11:00.712Z,984.2717
2022-10-22T02:12:00.929Z,984.3073
2022-10-22T02:13:01.010Z,984.3006
2022-10-22T02:14:01.163Z,984.1852
2022-10-22T02:15:00.300Z,984.1564
2022-10-22T02:16:00.479Z,984.3073
2022-10-22T02:17:00.599Z,984.365
2022-10-22T02:18:00.748Z,984.3006
2022-10-22T02:19:00.927Z,984.3294
2022-10-22T02:20:01.036Z,984.2853
2022-10-22T02:21:01.252Z,984.4074
2022-10-22T02:22:00.329Z,984.4006
2022-10-22T02:23:00.489Z,984.2276
2022-10-22T02:24:00.643Z,984.3209
2022-10-22T02:25:00.783Z,984.3786
2022-10-22T02:26:00.950Z,984.2704
2022-10-22T02:27:01.102Z,984.0901
2022-10-22T02:28:01.241Z,984.2483
2022-10-22T02:29:00.385Z,984.2195
2022-10-22T02:30:00.576Z,984.0816
2022-10-22T02:31:00.679Z,984.1465
2022-10-22T02:32:00.848Z,984.1244
2022-10-22T02:33:00.978Z,984.2244
2022-10-22T02:34:01.218Z,984.2452
2022-10-22T02:35:00.258Z,984.352
2022-10-22T02:36:00.403Z,984.1789
2022-10-22T02:37:00.590Z,984.265
2022-10-22T02:38:00.699Z,984.1568
2022-10-22T02:39:00.850Z,984.128
2022-10-22T02:40:00.991Z,984.1348
2022-10-22T02:41:01.142Z,984.2858
2022-10-22T02:42:00.305Z,984.2281
2022-10-22T02:43:00.458Z,984.206
2022-10-22T02:44:00.589Z,984.1555
2022-10-22T02:45:00.733Z,984.2132
2022-10-22T02:46:00.882Z,984.2416
2022-10-22T02:47:01.025Z,984.2132
2022-10-22T02:48:01.207Z,984.2416
2022-10-22T02:49:00.333Z,984.1618
2022-10-22T02:50:00.483Z,984.298
2022-10-22T02:51:00.638Z,984.298
2022-10-22T02:52:00.776Z,984.0455
2022-10-22T02:53:00.958Z,984.1677
2022-10-22T02:54:01.107Z,984.0595
2022-10-22T02:55:01.247Z,984.1167
2022-10-22T02:56:00.396Z,984.2033
2022-10-22T02:57:00.540Z,984.2389
2022-10-22T02:58:00.683Z,984.1235
2022-10-22T02:59:00.850Z,984.2529
2022-10-22T03:00:00.978Z,984.3972
2022-10-22T03:01:01.215Z,984.1235
2022-10-22T03:02:00.268Z,984.1812
2022-10-22T03:03:00.428Z,984.3544
2022-10-22T03:04:00.617Z,984.2818
2022-10-22T03:05:00.726Z,984.3972
2022-10-22T03:06:00.869Z,984.3187
2022-10-22T03:07:01.019Z,984.441
2022-10-22T03:08:01.170Z,984.5415
2022-10-22T03:09:00.478Z,984.5127
2022-10-22T03:10:00.476Z,984.5704
2022-10-22T03:11:00.620Z,984.5415
2022-10-22T03:12:00.780Z,984.5127
2022-10-22T03:13:00.900Z,984.519
2022-10-22T03:14:01.075Z,984.4969
2022-10-22T03:15:01.210Z,984.4103
2022-10-22T03:16:00.356Z,984.5326
2022-10-22T03:17:00.505Z,984.648
2022-10-22T03:18:00.651Z,984.6039
2022-10-22T03:19:00.821Z,984.5326
2022-10-22T03:20:00.958Z,984.4527
2022-10-22T03:21:01.104Z,984.4884
2022-10-22T03:22:01.242Z,984.6395
2022-10-22T03:23:00.380Z,984.6395
2022-10-22T03:24:00.554Z,984.4595
2022-10-22T03:25:00.694Z,984.4803
2022-10-22T03:26:00.828Z,984.4884
2022-10-22T03:27:00.972Z,984.4446
2022-10-22T03:28:01.117Z,984.5092
2022-10-22T03:29:00.267Z,984.4735
2022-10-22T03:30:00.426Z,984.6824
2022-10-22T03:31:00.555Z,984.4514
2022-10-22T03:32:00.705Z,984.3359
2022-10-22T03:33:00.855Z,984.4798
2022-10-22T03:34:01.009Z,984.3071
2022-10-22T03:35:01.186Z,984.3359
2022-10-22T03:36:00.277Z,984.4871
2022-10-22T03:37:00.433Z,984.3071
2022-10-22T03:38:00.589Z,984.3071
2022-10-22T03:39:00.737Z,984.322
2022-10-22T03:40:00.902Z,984.358
2022-10-22T03:41:01.021Z,984.2931
2022-10-22T03:42:01.174Z,984.3152
2022-10-22T03:43:00.325Z,984.1709
2022-10-22T03:44:00.460Z,984.0996
2022-10-22T03:45:00.641Z,984.1709
2022-10-22T03:46:00.768Z,984.215
2022-10-22T03:47:02.624Z,984.1794
2022-10-22T03:48:01.070Z,984.266
2022-10-22T03:49:01.221Z,984.2304
2022-10-22T03:50:00.371Z,984.2083
2022-10-22T03:51:00.510Z,984.2949
2022-10-22T03:52:00.660Z,984.2304
2022-10-22T03:53:00.813Z,984.2809
2022-10-22T03:54:00.931Z,984.4541
2022-10-22T03:55:01.083Z,984.4541
2022-10-22T03:56:01.232Z,984.3458
2022-10-22T03:57:00.370Z,984.4541
2022-10-22T03:58:00.549Z,984.3972
2022-10-22T03:59:00.675Z,984.2818
2022-10-22T04:00:00.831Z,984.3972
2022-10-22T04:01:01.059Z,984.5118
2022-10-22T04:02:01.130Z,984.4541
2022-10-22T04:03:00.302Z,984.5118
2022-10-22T04:04:00.423Z,984.5695
2022-10-22T04:05:00.625Z,984.3106
2022-10-22T04:06:00.738Z,984.4541
2022-10-22T04:07:00.886Z,984.2818
2022-10-22T04:08:01.061Z,984.4969
2022-10-22T04:09:01.292Z,984.4103
2022-10-22T04:10:00.323Z,984.4829
2022-10-22T04:11:00.481Z,984.3526
2022-10-22T04:12:00.635Z,984.4613
2022-10-22T04:13:00.806Z,984.4613
2022-10-22T04:14:00.932Z,984.4613
2022-10-22T04:15:01.077Z,984.4969
2022-10-22T04:16:01.238Z,984.5835
2022-10-22T04:17:00.416Z,984.4541
2022-10-22T04:18:00.539Z,984.5479
2022-10-22T04:19:00.691Z,984.4541
2022-10-22T04:20:00.839Z,984.5407
2022-10-22T04:21:00.982Z,984.5415
2022-10-22T04:22:01.121Z,984.4549
2022-10-22T04:23:00.280Z,984.6281
2022-10-22T04:24:00.433Z,984.5853
2022-10-22T04:25:00.597Z,984.6073
2022-10-22T04:26:00.734Z,984.5496
2022-10-22T04:27:00.879Z,984.514
2022-10-22T04:28:01.055Z,984.6944
2022-10-22T04:29:01.160Z,984.6366
2022-10-22T04:30:00.319Z,984.5649
2022-10-22T04:31:00.452Z,984.5866
2022-10-22T04:32:00.599Z,984.5081
2022-10-22T04:33:00.751Z,984.6019
2022-10-22T04:34:00.905Z,984.5658
2022-10-22T04:35:01.027Z,984.5658
2022-10-22T04:36:01.180Z,984.6745
2022-10-22T04:37:00.329Z,984.7101
2022-10-22T04:38:00.466Z,984.6745
2022-10-22T04:39:00.632Z,984.559
2022-10-22T04:40:00.780Z,984.5234
2022-10-22T04:41:00.918Z,984.4368
2022-10-22T04:42:01.061Z,984.5018
2022-10-22T04:43:01.209Z,984.4945
2022-10-22T04:44:00.394Z,984.6388
2022-10-22T04:45:00.510Z,984.7101
2022-10-22T04:46:00.642Z,984.559
2022-10-22T04:47:00.785Z,984.5658
2022-10-22T04:48:00.927Z,984.6443
2022-10-22T04:49:01.078Z,984.5866
2022-10-22T04:50:01.240Z,984.6154
2022-10-22T04:51:00.369Z,984.5
2022-10-22T04:52:00.519Z,984.6366
2022-10-22T04:53:00.671Z,984.514
2022-10-22T04:54:00.847Z,984.6651
2022-10-22T04:55:01.012Z,984.6073
2022-10-22T04:56:01.111Z,984.6073
2022-10-22T04:57:01.252Z,984.6141
2022-10-22T04:58:00.394Z,984.4987
2022-10-22T04:59:00.532Z,984.6281
2022-10-22T05:00:00.701Z,984.5415
2022-10-22T05:01:00.910Z,984.5695
2022-10-22T05:02:00.982Z,984.5767
2022-10-22T05:03:01.138Z,984.4969
2022-10-22T05:04:00.291Z,984.4969
2022-10-22T05:05:00.438Z,984.5326
2022-10-22T05:06:00.653Z,984.4969
2022-10-22T05:07:00.756Z,984.5835
2022-10-22T05:08:00.888Z,984.6412
2022-10-22T05:09:01.141Z,984.5614
2022-10-22T05:10:01.188Z,984.6124
2022-10-22T05:11:00.351Z,984.8248
2022-10-22T05:12:00.463Z,984.7671
2022-10-22T05:13:00.611Z,984.7193
2022-10-22T05:14:00.754Z,984.6905
2022-10-22T05:15:00.911Z,984.6905
2022-10-22T05:16:01.077Z,984.8027
2022-10-22T05:17:01.199Z,984.6616
2022-10-22T05:18:00.352Z,984.8248
2022-10-22T05:19:00.501Z,984.7671
2022-10-22T05:20:00.658Z,984.6467
2022-10-22T05:21:00.849Z,984.6824
2022-10-22T05:22:00.963Z,984.7108
2022-10-22T05:23:01.116Z,984.6025
2022-10-22T05:24:00.267Z,984.6093
2022-10-22T05:25:00.422Z,984.6518
2022-10-22T05:26:00.582Z,984.815
2022-10-22T05:27:00.718Z,984.594
2022-10-22T05:28:00.868Z,984.6229
2022-10-22T05:29:01.016Z,984.5363
2022-10-22T05:30:01.170Z,984.6297
2022-10-22T05:31:00.332Z,984.6653
2022-10-22T05:32:00.490Z,984.7708
2022-10-22T05:33:00.636Z,984.8421
2022-10-22T05:34:00.760Z,984.8494
2022-10-22T05:35:00.909Z,984.9576
2022-10-22T05:36:01.058Z,984.9649
2022-10-22T05:37:01.195Z,984.7303
2022-10-22T05:38:00.370Z,984.871
2022-10-22T05:39:00.516Z,984.7366
2022-10-22T05:40:12.477Z,984.7303
2022-10-22T05:41:00.800Z,984.7659
2022-10-22T05:42:00.956Z,984.778
2022-10-22T05:43:01.111Z,984.9576
2022-10-22T05:44:00.285Z,984.8494
2022-10-22T05:45:00.403Z,984.8421
2022-10-22T05:46:00.553Z,984.9292
2022-10-22T05:47:00.709Z,984.871
2022-10-22T05:48:00.839Z,984.9865
2022-10-22T05:49:01.017Z,984.9576
2022-10-22T05:50:01.134Z,984.9224
2022-10-22T05:51:00.277Z,985.0443
2022-10-22T05:52:00.431Z,984.9292
2022-10-22T05:53:00.578Z,984.8863
2022-10-22T05:54:00.743Z,984.9152
2022-10-22T05:55:00.858Z,985.1959
2022-10-22T05:56:01.004Z,985.0731
2022-10-22T05:57:01.147Z,985.0804
2022-10-22T05:58:00.297Z,985.0804
2022-10-22T05:59:00.524Z,985.1738
2022-10-22T06:00:00.578Z,985.0307
2022-10-22T06:01:00.725Z,985.2315
2022-10-22T06:02:00.960Z,985.2808
2022-10-22T06:03:01.033Z,985.2808
2022-10-22T06:04:01.200Z,985.2231
2022-10-22T06:05:00.357Z,985.2808
2022-10-22T06:06:00.479Z,985.1075
2022-10-22T06:07:00.618Z,985.2808
2022-10-22T06:08:00.773Z,985.3016
2022-10-22T06:09:01.015Z,985.2146
2022-10-22T06:10:01.095Z,985.3004
2022-10-22T06:11:01.249Z,985.5073
2022-10-22T06:12:00.409Z,985.2703
2022-10-22T06:13:00.535Z,985.4347
2022-10-22T06:14:00.678Z,985.4347
2022-10-22T06:15:00.838Z,985.3918
2022-10-22T06:16:00.998Z,985.5791
2022-10-22T06:17:01.155Z,985.4347
2022-10-22T06:18:00.271Z,985.7235
2022-10-22T06:19:00.415Z,985.5651
2022-10-22T06:20:00.649Z,985.6658
2022-10-22T06:21:00.701Z,985.7384
2022-10-22T06:22:00.874Z,985.7962
2022-10-22T06:23:01.030Z,985.7673
2022-10-22T06:24:01.159Z,985.7179
2022-10-22T06:25:00.297Z,985.7757
2022-10-22T06:26:00.442Z,985.6822
2022-10-22T06:27:00.600Z,985.87
2022-10-22T06:28:00.767Z,985.7476
2022-10-22T06:29:00.890Z,985.7918
2022-10-22T06:30:01.048Z,985.6762
2022-10-22T06:31:01.195Z,985.8495
2022-10-22T06:32:00.332Z,985.9939
2022-10-22T06:33:00.511Z,985.742
2022-10-22T06:34:00.641Z,985.7645
2022-10-22T06:35:00.793Z,985.8303
2022-10-22T06:36:04.056Z,985.8443
2022-10-22T06:37:01.080Z,985.7661
2022-10-22T06:38:01.288Z,985.8387
2022-10-22T06:39:00.397Z,985.8676
2022-10-22T06:40:00.548Z,986.1137
2022-10-22T06:41:00.692Z,986.1137
2022-10-22T06:42:00.852Z,985.8692
2022-10-22T06:43:01.023Z,985.8331
2022-10-22T06:44:01.152Z,985.7397
2022-10-22T06:45:03.012Z,985.9995
2022-10-22T06:46:00.452Z,985.7685
2022-10-22T06:47:00.602Z,985.8924
2022-10-22T06:48:00.761Z,985.9213
2022-10-22T06:49:00.895Z,985.8567
2022-10-22T06:50:01.017Z,985.9369
2022-10-22T06:51:01.130Z,986.0235
2022-10-22T06:52:00.276Z,986.0235
2022-10-22T06:53:00.438Z,986.1389
2022-10-22T06:54:00.603Z,985.9806
2022-10-22T06:55:00.732Z,986.096
2022-10-22T06:56:00.885Z,986.2335
2022-10-22T06:57:01.054Z,986.2115
2022-10-22T06:58:01.217Z,986.2403
2022-10-22T06:59:00.377Z,986.0892
2022-10-22T07:00:00.520Z,986.1758
2022-10-22T07:01:00.730Z,986.3489
2022-10-22T07:02:00.803Z,986.2624
2022-10-22T07:03:00.964Z,986.1758
2022-10-22T07:04:01.110Z,986.2046
2022-10-22T07:05:01.273Z,986.2912
2022-10-22T07:06:00.397Z,986.1621
2022-10-22T07:07:00.539Z,986.2692
2022-10-22T07:08:00.686Z,986.3201
2022-10-22T07:09:01.034Z,986.2844
2022-10-22T07:10:01.006Z,986.371
2022-10-22T07:11:01.139Z,986.4724
2022-10-22T07:12:00.276Z,986.3281
2022-10-22T07:13:00.418Z,986.3858
2022-10-22T07:14:00.577Z,986.4435
2022-10-22T07:15:00.738Z,986.4587
2022-10-22T07:16:00.893Z,986.4226
2022-10-22T07:17:01.021Z,986.4735
2022-10-22T07:18:01.158Z,986.3585
2022-10-22T07:19:00.299Z,986.409
2022-10-22T07:20:00.460Z,986.5316
2022-10-22T07:21:00.615Z,986.601
2022-10-22T07:22:00.767Z,986.5721
2022-10-22T07:23:00.936Z,986.7452
2022-10-22T07:24:01.042Z,986.8318
2022-10-22T07:25:05.213Z,986.7164
2022-10-22T07:26:00.340Z,986.637
2022-10-22T07:27:00.488Z,986.8029
2022-10-22T07:28:00.664Z,986.7027
2022-10-22T07:29:00.814Z,986.7388
2022-10-22T07:30:00.957Z,986.8679
2022-10-22T07:31:01.096Z,986.7965
2022-10-22T07:32:01.247Z,986.8607
2022-10-22T07:33:00.415Z,986.8029
2022-10-22T07:34:00.529Z,986.8029
2022-10-22T07:35:00.685Z,986.8679
2022-10-22T07:36:00.840Z,986.9032
2022-10-22T07:37:00.985Z,986.9032
2022-10-22T07:38:01.168Z,986.8318
2022-10-22T07:39:00.294Z,986.9898
2022-10-22T07:40:03.712Z,986.8675
2022-10-22T07:41:00.575Z,986.8675
2022-10-22T07:42:00.729Z,986.9032
2022-10-22T07:43:00.890Z,986.8455
2022-10-22T07:44:01.027Z,986.8675
2022-10-22T07:45:01.180Z,986.9829
2022-10-22T07:46:00.314Z,986.9609
2022-10-22T07:47:00.462Z,986.9829
2022-10-22T07:48:00.621Z,986.8675
2022-10-22T07:49:00.755Z,986.8895
2022-10-22T07:50:00.927Z,986.9472
2022-10-22T07:51:01.057Z,986.9472
2022-10-22T07:52:01.195Z,986.8318
2022-10-22T07:53:00.365Z,986.8675
2022-10-22T07:54:00.488Z,987.0395
2022-10-22T07:55:00.641Z,986.9393
2022-10-22T07:56:00.800Z,986.9032
2022-10-22T07:57:00.953Z,986.795
2022-10-22T07:58:01.123Z,986.8664
2022-10-22T08:00:00.391Z,986.6659
2022-10-22T08:01:00.598Z,986.7813
2022-10-22T08:02:00.695Z,986.8098
2022-10-22T08:03:00.857Z,986.7301
2022-10-22T08:04:00.992Z,986.7164
2022-10-22T08:05:01.141Z,986.6587
2022-10-22T08:06:00.280Z,986.8029
2022-10-22T08:07:00.437Z,986.601
2022-10-22T08:08:00.595Z,986.7452
2022-10-22T08:09:00.780Z,986.7095
2022-10-22T08:10:00.872Z,986.5941
2022-10-22T08:11:01.025Z,986.5584
2022-10-22T08:12:01.164Z,986.5736
2022-10-22T08:13:00.311Z,986.7027
2022-10-22T08:14:00.483Z,986.5584
2022-10-22T08:15:00.629Z,986.5107
2022-10-22T08:16:00.842Z,986.5653
2022-10-22T08:17:00.912Z,986.6947
2022-10-22T08:18:01.052Z,986.5858
2022-10-22T08:19:01.205Z,986.6355
2022-10-22T08:20:00.379Z,986.765
2022-10-22T08:21:00.496Z,986.7145
2022-10-22T08:22:00.644Z,986.7718
2022-10-22T08:23:00.782Z,986.9659
2022-10-22T08:24:00.970Z,986.9435
2022-10-22T08:25:01.078Z,986.9792
2022-10-22T08:26:01.231Z,987.0287
2022-10-22T08:27:00.361Z,986.9132
2022-10-22T08:28:00.513Z,986.9284
2022-10-22T08:29:00.654Z,986.8926
2022-10-22T08:30:00.796Z,986.9435
2022-10-22T08:31:00.964Z,986.8653
2022-10-22T08:32:01.089Z,986.8584
2022-10-22T08:33:01.234Z,986.6856
2022-10-22T08:34:00.376Z,986.7939
2022-10-22T08:35:00.531Z,986.8007
2022-10-22T08:36:00.698Z,986.6564
2022-10-22T08:37:00.831Z,986.743
2022-10-22T08:38:00.973Z,986.735
2022-10-22T08:39:01.120Z,986.6484
2022-10-22T08:40:00.288Z,986.6765
2022-10-22T08:41:00.418Z,986.8349
2022-10-22T08:42:00.555Z,986.7772
2022-10-22T08:43:00.701Z,986.8843
2022-10-22T08:44:00.858Z,986.7977
2022-10-22T08:45:01.017Z,986.8912
2022-10-22T08:46:01.140Z,987.0207
2022-10-22T08:47:00.282Z,986.9186
2022-10-22T08:48:00.430Z,986.9037
2022-10-22T08:49:00.623Z,986.9311
2022-10-22T08:50:00.748Z,986.9672
2022-10-22T08:51:00.874Z,987.0813
2022-10-22T08:52:01.009Z,987.1102
2022-10-22T08:53:01.153Z,987.0235
2022-10-22T08:54:00.308Z,987.0015
2022-10-22T08:55:00.482Z,986.943
2022-10-22T08:56:00.604Z,987.0571
2022-10-22T08:57:00.746Z,987.078
2022-10-22T08:58:00.897Z,987.1852
2022-10-22T08:59:01.049Z,987.083
2022-10-22T09:00:01.225Z,987.0899
2022-10-22T09:01:00.351Z,987.1328
2022-10-22T09:02:00.494Z,987.0971
2022-10-22T09:03:00.634Z,987.2401
2022-10-22T09:04:00.782Z,986.9512
2022-10-22T09:05:00.952Z,987.0147
2022-10-22T09:06:01.105Z,986.9417
2022-10-22T09:07:01.240Z,986.8976
2022-10-22T09:08:00.388Z,986.8824
2022-10-22T09:09:00.598Z,986.9323
2022-10-22T09:10:00.686Z,986.7878
2022-10-22T09:11:00.868Z,986.722
2022-10-22T09:12:00.984Z,986.7714
2022-10-22T09:13:01.136Z,986.843
2022-10-22T09:14:00.275Z,986.7829
2022-10-22T09:15:00.445Z,986.8544
2022-10-22T09:16:00.597Z,986.679
2022-10-22T09:17:00.752Z,986.8294
2022-10-22T09:18:00.891Z,986.7137
2022-10-22T09:19:01.024Z,986.821
2022-10-22T09:20:01.158Z,986.8926
2022-10-22T09:21:00.315Z,986.8998
2022-10-22T09:22:00.542Z,986.6033
2022-10-22T09:23:00.617Z,986.8477
2022-10-22T09:24:00.771Z,986.6163
2022-10-22T09:25:00.932Z,986.8477
2022-10-22T09:26:01.074Z,986.5721
2022-10-22T09:27:01.240Z,986.6878
2022-10-22T09:28:00.369Z,986.5721
2022-10-22T09:29:00.506Z,986.63
2022-10-22T09:30:00.658Z,986.7815
2022-10-22T09:31:00.814Z,986.622
2022-10-22T09:32:00.984Z,986.5532
2022-10-22T09:33:01.112Z,986.6795
2022-10-22T09:34:01.258Z,986.5159
2022-10-22T09:35:00.408Z,986.6646
2022-10-22T09:36:00.545Z,986.6068
2022-10-22T09:37:00.724Z,986.6205
2022-10-22T09:38:00.853Z,986.7062
2022-10-22T09:39:00.986Z,986.7625
2022-10-22T09:40:01.133Z,986.7469
2022-10-22T09:41:00.282Z,986.7968
2022-10-22T09:42:00.446Z,986.7668
2022-10-22T09:43:00.569Z,986.7584
2022-10-22T09:44:00.716Z,986.8011
2022-10-22T09:45:00.861Z,986.8716
2022-10-22T09:46:01.024Z,986.8705
2022-10-22T09:47:01.186Z,986.9936
2022-10-22T09:48:02.368Z,986.9422
2022-10-22T09:49:00.445Z,986.8183
2022-10-22T09:50:00.592Z,987.02
2022-10-22T09:51:00.735Z,987.0779
2022-10-22T09:52:00.924Z,987.0917
2022-10-22T09:53:01.070Z,987.2572
2022-10-22T09:54:01.205Z,987.4292
2022-10-22T09:55:00.358Z,987.5303
2022-10-22T09:56:00.516Z,987.3122
2022-10-22T09:57:00.646Z,987.543
2022-10-22T09:58:00.819Z,987.4999
2022-10-22T09:59:00.945Z,987.384
2022-10-22T10:00:01.074Z,987.4778
2022-10-22T10:01:01.228Z,987.4999
2022-10-22T10:02:13.409Z,987.3909
2022-10-22T10:03:00.593Z,987.4281
2022-10-22T10:04:00.665Z,987.4086
2022-10-22T10:05:00.810Z,987.4462
2022-10-22T10:06:04.794Z,987.4752
2022-10-22T10:07:01.117Z,987.4752
2022-10-22T10:08:00.313Z,987.49
2022-10-22T10:09:00.520Z,987.3593
2022-10-22T10:10:00.576Z,987.46
2022-10-22T10:11:00.722Z,987.4723
2022-10-22T10:12:00.871Z,987.6821
2022-10-22T10:13:01.045Z,987.3644
2022-10-22T10:14:01.206Z,987.4144
2022-10-22T10:15:00.323Z,987.4723
2022-10-22T10:16:00.477Z,987.4723
2022-10-22T10:17:00.614Z,987.4513
2022-10-22T10:18:00.762Z,987.4955
2022-10-22T10:19:00.929Z,987.5179
2022-10-22T10:20:03.766Z,987.4172
2022-10-22T10:21:01.283Z,987.5179
2022-10-22T10:22:00.349Z,987.431
2022-10-22T10:23:00.497Z,987.3151
2022-10-22T10:24:00.645Z,987.3097
2022-10-22T10:25:00.818Z,987.2959
2022-10-22T10:26:00.936Z,987.3824
2022-10-22T10:27:01.097Z,987.5124
2022-10-22T10:28:01.235Z,987.4752
2022-10-22T10:29:00.379Z,987.3593
2022-10-22T10:30:00.540Z,987.4434
2022-10-22T10:31:00.788Z,987.3818
2022-10-22T10:32:00.818Z,987.5916
2022-10-22T10:33:00.985Z,987.2369
2022-10-22T10:34:01.121Z,987.4318
2022-10-22T10:35:00.253Z,987.5557
2022-10-22T10:36:00.416Z,987.4419
2022-10-22T10:37:00.552Z,987.3992
2022-10-22T10:38:00.748Z,987.4129
2022-10-22T10:39:00.856Z,987.326
2022-10-22T10:40:01.054Z,987.1615
2022-10-22T10:41:01.148Z,987.2543
2022-10-22T10:42:00.297Z,987.326
2022-10-22T10:43:00.448Z,987.1728
2022-10-22T10:44:00.595Z,987.092
2022-10-22T10:45:00.778Z,987.1789
2022-10-22T10:46:00.872Z,987.2137
2022-10-22T10:47:01.032Z,987.2996
2022-10-22T10:48:01.150Z,987.2264
2022-10-22T10:49:00.309Z,987.3851
2022-10-22T10:50:00.477Z,987.189
2022-10-22T10:51:00.642Z,987.3065
2022-10-22T10:52:00.747Z,987.2401
2022-10-22T10:53:00.891Z,987.2775
2022-10-22T10:54:01.062Z,987.2401
2022-10-22T10:55:01.217Z,987.218
2022-10-22T10:56:00.343Z,987.3395
2022-10-22T10:57:00.478Z,987.3395
2022-10-22T10:58:00.617Z,987.2731
2022-10-22T10:59:00.749Z,987.3395
2022-10-22T11:00:00.927Z,987.4171
2022-10-22T11:01:01.042Z,987.3798
2022-10-22T11:02:01.188Z,987.4447
2022-10-22T11:03:00.340Z,987.3591
2022-10-22T11:04:00.477Z,987.395
2022-10-22T11:05:00.638Z,987.3065
2022-10-22T11:06:00.782Z,987.4204
2022-10-22T11:07:10.970Z,987.3181
2022-10-22T11:08:01.077Z,987.3413
2022-10-22T11:09:01.379Z,987.3704
2022-10-22T11:10:00.381Z,987.4505
2022-10-22T11:11:00.591Z,987.3344
2022-10-22T11:12:00.679Z,987.3925
2022-10-22T11:13:00.831Z,987.4135
2022-10-22T11:14:00.998Z,987.4494
2022-10-22T11:15:01.136Z,987.4636
2022-10-22T11:16:00.273Z,987.3762
2022-10-22T11:17:00.425Z,987.4636
2022-10-22T11:18:00.579Z,987.3751
2022-10-22T11:19:00.756Z,987.259
2022-10-22T11:20:00.960Z,987.3889
2022-10-22T11:21:01.019Z,987.2949
2022-10-22T11:22:01.172Z,987.3229
2022-10-22T11:23:18.799Z,987.3298
2022-10-22T11:24:00.483Z,987.4016
2022-10-22T11:25:00.601Z,987.4016
2022-10-22T11:26:00.752Z,987.4375
2022-10-22T11:27:00.896Z,987.4807
2022-10-22T11:28:06.654Z,987.5813
2022-10-22T11:29:01.208Z,987.2536
2022-10-22T11:30:00.331Z,987.3534
2022-10-22T11:31:00.577Z,987.4173
2022-10-22T11:32:00.646Z,987.3893
2022-10-22T11:33:00.781Z,987.3037
2022-10-22T11:34:09.970Z,987.4986
2022-10-22T11:35:01.094Z,987.4681
2022-10-22T11:36:01.242Z,987.3011
2022-10-22T11:37:00.380Z,987.2558
2022-10-22T11:38:00.526Z,987.3556
2022-10-22T11:39:00.690Z,987.4787
2022-10-22T11:40:00.808Z,987.3611
2022-10-22T11:41:00.960Z,987.3324
2022-10-22T11:42:01.118Z,987.4773
2022-10-22T11:43:00.259Z,987.4831
2022-10-22T11:44:00.447Z,987.4181
2022-10-22T11:45:00.565Z,987.4635
2022-10-22T11:46:00.706Z,987.5354
2022-10-22T11:47:00.851Z,987.5416
2022-10-22T11:48:00.998Z,987.3212